Time;durP1;ratioP1;P1;durP2;ratioP2;P2;SDS_P1;SDS_P2;PMS_P1;PMS_P2;Temp;Humidity;BMP_temperature;BMP_pressure;BME280_temperature;BME280_humidity;BME280_pressure;Samples;Min_cycle;Max_cycle;Signal;HPM_P1;HPM_P2
2022/06/07 00:01:16;;;;;;;10.23;6.13;;;;;;;19.60;100.00;100068.84;5115759;28;20044;-83
2022/06/07 00:03:47;;;;;;;8.43;5.90;;;;;;;19.66;100.00;100068.22;5115057;28;20447;-83
2022/06/07 00:06:18;;;;;;;7.50;5.50;;;;;;;19.66;100.00;100060.09;5115683;28;20049;-80
2022/06/07 00:08:48;;;;;;;8.80;5.60;;;;;;;19.64;100.00;100056.69;5097052;28;20062;-80
2022/06/07 00:11:16;;;;;;;7.43;5.43;;;;;;;19.59;100.00;100061.72;5115359;28;20040;-80
2022/06/07 00:13:45;;;;;;;9.30;6.20;;;;;;;19.49;100.00;100059.06;5114925;28;20096;-81
2022/06/07 00:16:15;;;;;;;8.10;6.22;;;;;;;19.50;100.00;100063.47;5115407;28;20046;-80
2022/06/07 00:18:43;;;;;;;8.25;5.75;;;;;;;19.41;100.00;100059.00;5114604;28;20048;-82
2022/06/07 00:21:13;;;;;;;8.18;5.95;;;;;;;19.29;100.00;100063.75;5114915;28;20044;-80
2022/06/07 00:23:41;;;;;;;8.57;6.03;;;;;;;19.27;100.00;100059.50;5114671;28;20039;-80
2022/06/07 00:26:14;;;;;;;8.45;5.43;;;;;;;19.28;100.00;100055.78;5115198;28;20473;-80
2022/06/07 00:28:42;;;;;;;10.03;6.17;;;;;;;19.33;100.00;100057.06;5115130;28;20046;-80
2022/06/07 00:31:11;;;;;;;8.10;5.47;;;;;;;19.27;100.00;100054.09;5114900;28;20047;-80
2022/06/07 00:33:39;;;;;;;9.50;6.07;;;;;;;19.19;100.00;100056.72;5114751;28;20047;-80
2022/06/07 00:36:09;;;;;;;10.05;6.32;;;;;;;19.12;100.00;100056.47;5114997;28;20040;-80
2022/06/07 00:38:37;;;;;;;8.98;5.97;;;;;;;19.13;100.00;100055.47;5114659;28;20522;-80
2022/06/07 00:41:05;;;;;;;6.97;5.03;;;;;;;19.05;100.00;100055.38;5115058;28;20468;-80
2022/06/07 00:43:36;;;;;;;7.88;5.47;;;;;;;18.91;100.00;100055.88;5114613;28;20089;-81
2022/06/07 00:46:07;;;;;;;8.95;5.53;;;;;;;19.01;100.00;100059.38;5115037;28;20055;-83
2022/06/07 00:48:39;;;;;;;7.68;5.47;;;;;;;18.83;100.00;100053.94;5114288;28;20066;-79
2022/06/07 00:51:11;;;;;;;7.80;5.78;;;;;;;18.77;100.00;100052.69;5114959;28;20068;-79
2022/06/07 00:53:39;;;;;;;8.18;5.30;;;;;;;18.83;100.00;100054.78;5096501;28;20130;-78
2022/06/07 00:56:08;;;;;;;7.43;5.32;;;;;;;18.65;100.00;100050.34;5114594;28;20043;-79
2022/06/07 00:58:39;;;;;;;6.88;5.47;;;;;;;18.65;100.00;100051.19;5114546;28;20039;-83
2022/06/07 01:01:07;;;;;;;8.73;6.05;;;;;;;18.46;100.00;100040.41;5114755;28;20407;-82
2022/06/07 01:03:36;;;;;;;7.97;5.35;;;;;;;18.69;100.00;100043.63;5114534;28;20075;-80
2022/06/07 01:11:34;;;;;;;10.48;5.78;;;;;;;18.72;100.00;100041.50;5114245;28;20392;-74
2022/06/07 01:14:04;;;;;;;9.77;5.32;;;;;;;18.63;100.00;100036.94;5114371;28;20067;-74
2022/06/07 01:16:32;;;;;;;7.55;5.38;;;;;;;18.60;100.00;100037.22;5114318;28;20477;-75
2022/06/07 01:19:01;;;;;;;9.27;5.70;;;;;;;18.50;100.00;100031.84;5113903;28;20518;-77
2022/06/07 01:21:33;;;;;;;12.35;5.93;;;;;;;18.46;100.00;100029.63;5114265;28;20097;-76
2022/06/07 01:24:01;;;;;;;9.32;5.80;;;;;;;18.53;100.00;100028.03;5114311;28;20040;-76
2022/06/07 01:26:29;;;;;;;8.45;5.80;;;;;;;18.55;100.00;100020.63;5114210;28;20039;-77
2022/06/07 01:28:58;;;;;;;9.25;5.80;;;;;;;18.52;100.00;100018.19;5114006;28;20445;-81
2022/06/07 01:31:26;;;;;;;6.97;5.50;;;;;;;18.42;100.00;100022.78;5114288;28;20423;-81
2022/06/07 01:33:54;;;;;;;10.25;6.20;;;;;;;18.35;100.00;100022.56;5113767;28;20053;-76
2022/06/07 01:36:23;;;;;;;8.27;5.72;;;;;;;18.28;100.00;100025.00;5113798;28;20049;-75
2022/06/07 01:44:21;;;;;;;7.07;6.03;;;;;;;18.40;100.00;100022.09;5114010;28;20120;-75
2022/06/07 01:46:50;;;;;;;10.95;6.00;;;;;;;18.35;100.00;100027.09;5113600;28;20043;-77
2022/06/07 01:49:19;;;;;;;7.90;6.07;;;;;;;18.36;100.00;100023.41;5113572;28;20055;-76
2022/06/07 01:51:48;;;;;;;9.90;5.40;;;;;;;18.16;100.00;100015.38;5095310;28;20054;-76
2022/06/07 01:54:18;;;;;;;8.35;5.78;;;;;;;18.14;100.00;100022.75;5113731;28;20487;-76
2022/06/07 01:56:46;;;;;;;7.70;5.35;;;;;;;18.12;100.00;100019.34;5113627;28;20035;-77
2022/06/07 01:59:14;;;;;;;8.75;5.65;;;;;;;18.11;100.00;100017.63;5113832;28;20044;-76
2022/06/07 02:01:42;;;;;;;8.82;5.43;;;;;;;18.09;100.00;100008.84;5113667;28;20394;-77
2022/06/07 02:04:11;;;;;;;6.15;5.05;;;;;;;17.97;100.00;100010.03;5113714;28;20100;-76
2022/06/07 02:06:41;;;;;;;7.20;5.30;;;;;;;18.03;100.00;100009.41;5113641;28;20067;-77
2022/06/07 02:09:11;;;;;;;6.70;5.15;;;;;;;18.00;100.00;100007.88;5113702;28;20058;-75
2022/06/07 02:11:41;;;;;;;6.68;5.28;;;;;;;17.92;100.00;100006.91;5113245;28;20122;-75
2022/06/07 02:14:13;;;;;;;7.72;5.00;;;;;;;17.93;100.00;100000.50;5113591;28;20469;-76
2022/06/07 02:16:41;;;;;;;7.25;5.65;;;;;;;17.90;100.00;99998.94;5113279;28;20071;-74
2022/06/07 02:19:09;;;;;;;7.57;4.90;;;;;;;18.05;100.00;99993.97;5113651;28;20122;-74
2022/06/07 02:21:39;;;;;;;8.98;4.50;;;;;;;18.12;100.00;99981.56;5113278;28;20040;-74
2022/06/07 02:24:09;;;;;;;8.88;4.60;;;;;;;18.01;100.00;99992.53;5113429;28;20071;-79
2022/06/07 02:26:42;;;;;;;8.40;5.30;;;;;;;17.89;100.00;99994.56;5113116;28;20550;-82
2022/06/07 02:29:14;;;;;;;7.43;5.13;;;;;;;17.87;100.00;99991.16;5113819;28;20075;-80
2022/06/07 02:31:46;;;;;;;10.55;4.88;;;;;;;17.88;100.00;99987.47;5116329;28;20039;-81
2022/06/07 02:34:16;;;;;;;7.13;4.80;;;;;;;17.92;100.00;99988.00;5099324;28;20047;-79
2022/06/07 02:36:48;;;;;;;8.90;5.18;;;;;;;17.96;100.00;99981.34;5117448;28;20050;-79
2022/06/07 02:39:17;;;;;;;5.93;4.70;;;;;;;18.00;100.00;99985.44;5117673;28;20039;-82
2022/06/07 02:41:50;;;;;;;7.63;4.47;;;;;;;17.92;100.00;99986.16;5098883;28;20050;-82
2022/06/07 02:44:18;;;;;;;6.63;4.55;;;;;;;17.86;100.00;99986.75;5117545;28;20046;-79
2022/06/07 02:46:46;;;;;;;6.60;5.35;;;;;;;17.80;100.00;99986.47;5117107;28;20090;-79
2022/06/07 02:49:14;;;;;;;8.13;5.28;;;;;;;17.71;100.00;99990.88;5117287;28;20052;-79
2022/06/07 02:51:42;;;;;;;6.50;4.95;;;;;;;17.82;100.00;99992.56;5117049;28;20134;-80
2022/06/07 02:54:10;;;;;;;7.95;5.38;;;;;;;17.70;100.00;99989.19;5117303;28;20461;-79
2022/06/07 02:56:41;;;;;;;10.02;5.68;;;;;;;17.81;100.00;99990.88;5098952;28;20051;-81
2022/06/07 02:59:10;;;;;;;8.13;4.90;;;;;;;17.86;100.00;100000.25;5117059;28;20043;-77
2022/06/07 03:01:38;;;;;;;8.05;5.25;;;;;;;17.92;100.00;99993.41;5116860;28;20051;-77
2022/06/07 03:04:07;;;;;;;8.85;5.15;;;;;;;17.82;100.00;99992.56;5116951;28;20043;-77
2022/06/07 03:06:35;;;;;;;6.35;5.00;;;;;;;17.86;100.00;99989.47;5116999;28;20054;-77
2022/06/07 03:09:04;;;;;;;6.68;5.30;;;;;;;17.90;100.00;99990.00;5098900;28;20354;-77
2022/06/07 03:11:32;;;;;;;9.02;5.30;;;;;;;17.78;100.00;99991.16;5116680;28;20542;-77
2022/06/07 03:14:00;;;;;;;7.40;5.53;;;;;;;17.76;100.00;99987.75;5116568;28;20560;-77
2022/06/07 03:16:30;;;;;;;9.30;5.50;;;;;;;17.74;100.00;99985.19;5116295;28;20127;-78
2022/06/07 03:18:58;;;;;;;7.10;5.68;;;;;;;17.81;100.00;99986.31;5116126;28;20071;-78
2022/06/07 03:21:28;;;;;;;7.63;6.05;;;;;;;17.83;100.00;99978.94;5116984;28;20059;-78
2022/06/07 03:23:57;;;;;;;8.00;5.80;;;;;;;17.80;100.00;99983.78;5116501;28;20114;-78
2022/06/07 03:26:25;;;;;;;10.52;5.80;;;;;;;17.98;100.00;99987.44;5116634;28;20050;-78
2022/06/07 03:28:53;;;;;;;9.95;5.90;;;;;;;18.25;100.00;99984.78;5098179;28;20039;-78
2022/06/07 03:31:21;;;;;;;10.52;5.80;;;;;;;18.28;100.00;99980.94;5116312;28;20101;-78
2022/06/07 03:33:52;;;;;;;7.53;5.47;;;;;;;18.55;100.00;99980.13;5116291;28;20040;-78
2022/06/07 03:36:22;;;;;;;6.68;4.97;;;;;;;19.48;100.00;99978.91;5116340;28;20078;-78
2022/06/07 03:38:52;;;;;;;7.82;5.00;;;;;;;20.33;100.00;99979.19;5115943;28;20123;-80
2022/06/07 03:41:26;;;;;;;6.95;4.97;;;;;;;21.01;100.00;99977.28;5097752;28;20055;-78
2022/06/07 03:43:55;;;;;;;6.25;4.70;;;;;;;21.85;100.00;99978.03;5115965;28;20040;-78
2022/06/07 03:46:25;;;;;;;7.78;4.65;;;;;;;22.27;100.00;99984.09;5115799;28;20048;-81
2022/06/07 03:48:56;;;;;;;6.47;4.70;;;;;;;22.98;100.00;99987.75;5115845;28;20076;-82
2022/06/07 03:51:27;;;;;;;6.78;4.60;;;;;;;23.51;100.00;99985.19;5116054;28;20051;-82
2022/06/07 03:53:56;;;;;;;9.13;4.72;;;;;;;23.73;100.00;99981.63;5115456;28;20050;-82
2022/06/07 03:56:24;;;;;;;7.65;4.43;;;;;;;24.06;100.00;99979.44;5116006;28;20044;-83
2022/06/07 03:58:53;;;;;;;5.07;3.85;;;;;;;24.43;100.00;99978.56;5115608;28;20035;-83
2022/06/07 04:01:23;;;;;;;7.43;4.28;;;;;;;24.82;100.00;99983.69;5115333;28;20048;-83
2022/06/07 04:03:56;;;;;;;7.82;4.10;;;;;;;25.35;100.00;99973.38;5115226;28;20067;-79
2022/06/07 04:06:26;;;;;;;6.78;4.07;;;;;;;24.97;100.00;99980.06;5115922;28;20533;-79
2022/06/07 04:08:55;;;;;;;6.35;3.78;;;;;;;25.28;100.00;99968.88;5115355;28;20469;-79
2022/06/07 04:11:25;;;;;;;6.35;3.50;;;;;;;25.57;100.00;99976.09;5115543;28;20036;-79
2022/06/07 04:13:55;;;;;;;6.63;3.35;;;;;;;25.55;100.00;99967.28;5115561;28;20039;-79
2022/06/07 04:16:26;;;;;;;6.55;3.90;;;;;;;26.73;100.00;99967.31;5115136;28;20412;-79
2022/06/07 04:18:56;;;;;;;5.63;3.17;;;;;;;25.49;100.00;99962.63;5115433;28;20051;-77
2022/06/07 04:21:25;;;;;;;5.50;3.75;;;;;;;26.19;100.00;99962.56;5115220;28;20411;-77
2022/06/07 04:23:54;;;;;;;9.05;3.55;;;;;;;26.80;100.00;99961.84;5114945;28;20040;-78
2022/06/07 04:26:26;;;;;;;4.57;3.15;;;;;;;26.49;100.00;99959.63;5115031;28;20131;-77
2022/06/07 04:28:57;;;;;;;5.45;3.25;;;;;;;26.80;100.00;99957.22;5115206;28;20050;-78
2022/06/07 04:31:27;;;;;;;4.75;2.83;;;;;;;26.92;100.00;99953.88;5114799;28;20050;-78
2022/06/07 04:33:58;;;;;;;6.32;3.17;;;;;;;27.12;100.00;99953.97;5115195;28;20057;-78
2022/06/07 04:36:28;;;;;;;4.60;2.90;;;;;;;27.08;100.00;99948.94;5114671;28;20044;-77
2022/06/07 04:38:57;;;;;;;4.93;2.80;;;;;;;27.98;100.00;99946.69;5114595;28;20476;-78
2022/06/07 04:41:26;;;;;;;6.30;3.15;;;;;;;27.75;100.00;99949.88;5114986;28;20069;-75
2022/06/07 04:43:56;;;;;;;4.18;2.95;;;;;;;28.30;100.00;99947.75;5114927;28;20052;-78
2022/06/07 04:46:25;;;;;;;5.18;2.83;;;;;;;28.07;96.30;99948.16;5114537;28;20051;-78
2022/06/07 04:48:54;;;;;;;4.72;3.10;;;;;;;27.50;95.50;99951.50;5114457;28;20056;-79
2022/06/07 04:51:27;;;;;;;4.18;3.00;;;;;;;28.57;87.24;99943.03;5114596;28;20043;-77
2022/06/07 04:53:58;;;;;;;4.25;2.90;;;;;;;29.08;74.19;99942.16;5113879;28;20047;-80
2022/06/07 04:56:28;;;;;;;5.60;2.80;;;;;;;29.28;63.60;99942.03;5114810;28;20039;-80
2022/06/07 04:58:58;;;;;;;5.97;3.20;;;;;;;28.89;60.26;99949.44;5095884;28;20052;-77
2022/06/07 05:01:27;;;;;;;5.05;2.97;;;;;;;28.96;60.23;99958.50;5096178;28;20542;-76
2022/06/07 05:03:56;;;;;;;5.47;2.70;;;;;;;29.17;57.09;99959.22;5096106;28;20056;-77
2022/06/07 05:06:28;;;;;;;4.43;2.88;;;;;;;29.60;55.37;99953.88;5114206;28;20122;-77
2022/06/07 05:08:59;;;;;;;4.47;3.03;;;;;;;29.59;52.60;99949.44;5114387;28;20047;-76
2022/06/07 05:11:29;;;;;;;6.63;3.00;;;;;;;29.49;51.84;99955.44;5096036;28;20127;-77
2022/06/07 05:13:59;;;;;;;5.55;3.03;;;;;;;29.06;52.41;99955.28;5113740;28;20071;-82
2022/06/07 05:16:30;;;;;;;6.75;2.75;;;;;;;29.65;50.88;99956.81;5096265;28;20409;-78
2022/06/07 05:19:07;;;;;;;7.13;2.92;;;;;;;30.11;47.95;99956.44;5114176;28;20043;-72
2022/06/07 05:21:36;;;;;;;6.38;2.80;;;;;;;30.76;44.19;99950.41;5114085;28;20044;-72
2022/06/07 05:24:05;;;;;;;4.93;2.90;;;;;;;31.57;41.79;99954.59;5114002;28;20040;-73
2022/06/07 05:26:39;;;;;;;6.25;2.97;;;;;;;31.65;40.71;99957.00;5113983;28;20043;-73
2022/06/07 05:29:16;;;;;;;5.97;2.67;;;;;;;31.58;40.50;99962.63;5113751;28;20046;-74
2022/06/07 05:31:44;;;;;;;5.47;2.80;;;;;;;31.40;41.31;99964.63;5114055;28;20039;-74
2022/06/07 05:34:12;;;;;;;8.13;2.60;;;;;;;31.47;40.71;99957.09;5113590;28;20131;-74
2022/06/07 05:36:42;;;;;;;6.15;2.60;;;;;;;30.56;42.70;99961.66;5113818;28;20438;-77
2022/06/07 05:39:20;;;;;;;4.50;2.40;;;;;;;31.60;40.75;99970.66;5113353;28;20040;-76
2022/06/07 05:41:48;;;;;;;4.25;2.58;;;;;;;31.50;40.68;99967.66;5113711;28;20138;-76
2022/06/07 05:44:17;;;;;;;3.63;2.22;;;;;;;32.17;39.55;99971.84;5113531;28;20040;-76
2022/06/07 05:46:45;;;;;;;4.60;2.40;;;;;;;32.30;38.92;99964.41;5113262;28;20070;-76
2022/06/07 05:49:14;;;;;;;4.07;2.53;;;;;;;32.02;39.48;99963.19;5113041;28;20100;-76
2022/06/07 05:51:47;;;;;;;6.68;2.78;;;;;;;32.22;39.34;99957.31;5113826;28;20044;-80
2022/06/07 05:54:15;;;;;;;4.70;2.42;;;;;;;32.63;38.48;99952.72;5095418;28;20541;-77
2022/06/07 05:56:44;;;;;;;4.28;2.38;;;;;;;32.62;37.58;99962.06;5113486;28;20115;-77
2022/06/07 05:59:13;;;;;;;3.88;2.25;;;;;;;32.50;37.56;99952.97;5094699;28;20044;-77
2022/06/07 06:01:41;;;;;;;4.47;2.10;;;;;;;32.10;38.17;99953.72;5113442;28;20039;-82
2022/06/07 06:04:10;;;;;;;3.95;2.20;;;;;;;32.28;38.54;99955.50;5113546;28;20043;-75
2022/06/07 06:06:39;;;;;;;5.18;2.70;;;;;;;32.38;37.96;99958.53;5117702;28;20043;-73
2022/06/07 06:12:00;;;;;;;4.90;2.20;;;;;;;32.08;38.39;99955.88;5023894;28;20046;-78
2022/06/07 06:14:28;;;;;;;4.53;2.28;;;;;;;33.12;35.72;99955.97;5117646;28;20044;-76
2022/06/07 06:16:56;;;;;;;3.28;2.15;;;;;;;33.35;36.33;99958.59;5117159;28;20127;-73
2022/06/07 06:19:24;;;;;;;2.90;2.08;;;;;;;33.09;35.70;99956.44;5117412;28;20036;-78
2022/06/07 06:21:53;;;;;;;3.15;1.90;;;;;;;34.12;33.30;99950.53;5117021;28;20044;-76
2022/06/07 06:24:23;;;;;;;5.53;2.10;;;;;;;33.39;35.16;99962.56;5117232;28;20050;-76
2022/06/07 06:26:54;;;;;;;3.05;1.90;;;;;;;33.05;35.31;99966.31;5099224;28;20044;-76
2022/06/07 06:29:24;;;;;;;2.78;1.60;;;;;;;32.84;35.67;99954.88;5117366;28;20477;-75
2022/06/07 06:31:54;;;;;;;4.50;2.00;;;;;;;32.97;35.14;99949.03;5117197;28;20050;-77
2022/06/07 06:34:23;;;;;;;4.32;1.85;;;;;;;32.88;36.07;99955.19;5117177;28;20434;-75
2022/06/07 06:36:51;;;;;;;6.97;2.00;;;;;;;33.27;35.25;99951.53;5117081;28;20039;-75
2022/06/07 06:39:20;;;;;;;2.92;1.70;;;;;;;34.35;33.69;99943.09;5098823;28;20058;-75
2022/06/07 06:41:49;;;;;;;3.40;1.65;;;;;;;34.28;32.17;99950.78;5117211;28;20078;-74
2022/06/07 06:44:18;;;;;;;3.53;1.70;;;;;;;32.52;34.16;99948.06;5116780;28;20070;-75
2022/06/07 06:46:48;;;;;;;2.95;1.70;;;;;;;32.34;34.72;99949.06;5117004;28;20115;-76
2022/06/07 06:49:18;;;;;;;2.63;1.80;;;;;;;32.46;34.76;99939.69;5116218;28;20073;-76
2022/06/07 06:51:48;;;;;;;2.17;1.50;;;;;;;33.31;33.60;99944.44;5117046;28;20553;-78
2022/06/07 06:54:17;;;;;;;2.80;1.55;;;;;;;32.91;34.42;99943.66;5116562;28;20555;-79
2022/06/07 06:56:47;;;;;;;3.50;1.60;;;;;;;32.62;35.09;99940.84;5117081;28;20044;-77
2022/06/07 06:59:17;;;;;;;4.07;1.80;;;;;;;32.04;37.19;99938.09;5098198;28;20051;-77
2022/06/07 07:01:46;;;;;;;2.55;1.73;;;;;;;30.78;38.90;99940.84;5116794;28;20050;-78
2022/06/07 07:04:18;;;;;;;3.97;1.85;;;;;;;30.10;40.53;99934.63;5116683;28;20042;-78
2022/06/07 07:06:47;;;;;;;2.92;1.35;;;;;;;29.56;41.13;99937.00;5116629;28;20031;-78
2022/06/07 07:09:18;;;;;;;2.72;1.45;;;;;;;28.89;42.16;99934.88;5116507;28;20040;-78
2022/06/07 07:11:49;;;;;;;4.80;1.50;;;;;;;29.41;41.15;99935.59;5116822;28;20442;-78
2022/06/07 07:14:19;;;;;;;2.65;1.60;;;;;;;29.14;42.04;99937.69;5116366;28;20050;-78
2022/06/07 07:16:50;;;;;;;2.67;1.60;;;;;;;29.55;41.67;99940.81;5116051;28;20047;-79
2022/06/07 07:19:20;;;;;;;4.47;1.70;;;;;;;29.75;41.09;99940.66;5097837;28;20048;-79
2022/06/07 07:21:52;;;;;;;5.30;1.60;;;;;;;29.01;41.50;99939.44;5116087;28;20040;-79
2022/06/07 07:24:22;;;;;;;5.75;1.90;;;;;;;29.27;42.34;99937.63;5115980;28;20044;-77
2022/06/07 07:26:52;;;;;;;4.18;1.80;;;;;;;29.08;42.19;99932.03;5116037;28;20048;-76
2022/06/07 07:29:23;;;;;;;4.43;1.70;;;;;;;29.18;43.15;99937.03;5115926;28;20044;-77
2022/06/07 07:31:53;;;;;;;3.08;1.70;;;;;;;29.04;42.62;99928.03;5116403;28;20048;-79
2022/06/07 07:34:22;;;;;;;2.95;1.60;;;;;;;29.15;43.12;99922.91;5097226;28;20070;-79
2022/06/07 07:36:53;;;;;;;2.30;1.48;;;;;;;28.90;43.55;99926.44;5115653;28;20044;-78
2022/06/07 07:39:23;;;;;;;2.65;1.42;;;;;;;28.76;43.34;99920.16;5115981;28;20089;-79
2022/06/07 07:41:54;;;;;;;2.47;1.58;;;;;;;28.57;45.00;99914.72;5115999;28;20043;-78
2022/06/07 07:44:27;;;;;;;4.75;1.63;;;;;;;28.47;43.50;99923.41;5115917;28;20046;-78
2022/06/07 07:46:56;;;;;;;3.60;1.58;;;;;;;28.49;43.51;99918.56;5115377;28;20082;-79
2022/06/07 07:49:24;;;;;;;2.05;1.33;;;;;;;28.17;43.94;99917.56;5115637;28;20056;-78
2022/06/07 07:51:55;;;;;;;3.17;1.73;;;;;;;27.91;44.97;99916.56;5115820;28;20035;-79
2022/06/07 07:54:25;;;;;;;3.20;1.20;;;;;;;28.11;44.47;99915.69;5115453;28;20070;-78
2022/06/07 07:56:53;;;;;;;3.13;1.50;;;;;;;28.16;45.21;99918.63;5115762;28;20449;-77
2022/06/07 07:59:26;;;;;;;1.65;1.30;;;;;;;28.15;43.97;99923.25;5115516;28;20039;-79
2022/06/07 08:01:54;;;;;;;2.50;1.30;;;;;;;28.24;45.21;99913.75;5115540;28;20047;-79
2022/06/07 08:04:22;;;;;;;2.15;1.13;;;;;;;28.05;44.40;99917.38;5096853;28;20130;-79
2022/06/07 08:06:51;;;;;;;2.45;1.50;;;;;;;27.93;46.05;99917.19;5115568;28;20374;-79
2022/06/07 08:09:20;;;;;;;2.83;1.40;;;;;;;28.15;45.51;99911.44;5115217;28;20104;-79
2022/06/07 08:11:49;;;;;;;3.90;1.48;;;;;;;28.51;44.34;99913.69;5115472;28;20044;-79
2022/06/07 08:14:19;;;;;;;3.75;1.90;;;;;;;28.55;44.66;99909.44;5115027;28;20085;-79
2022/06/07 08:16:49;;;;;;;3.08;1.60;;;;;;;28.47;44.01;99902.34;5115463;28;20122;-79
2022/06/07 08:19:18;;;;;;;2.83;1.50;;;;;;;28.23;45.41;99897.50;5114618;28;20433;-79
2022/06/07 08:21:47;;;;;;;3.25;1.20;;;;;;;28.26;45.63;99901.72;5115261;28;20040;-78
2022/06/07 08:24:18;;;;;;;3.47;1.60;;;;;;;28.43;41.03;99902.97;5114827;28;20114;-79
2022/06/07 08:26:49;;;;;;;2.22;1.20;;;;;;;28.46;41.20;99892.38;5115221;28;20043;-76
2022/06/07 08:29:18;;;;;;;2.50;1.48;;;;;;;28.56;41.10;99896.56;5095281;28;20556;-79
2022/06/07 08:31:46;;;;;;;1.90;1.15;;;;;;;28.50;42.30;99899.16;5115158;28;20051;-79
2022/06/07 08:40:08;;;;;;;3.05;1.50;;;;;;;28.44;41.90;99894.50;5051782;28;20502;-80
2022/06/07 08:42:39;;;;;;;6.57;1.98;;;;;;;28.51;42.78;99886.28;5103704;28;20082;-79
2022/06/07 08:45:14;;;;;;;2.95;1.50;;;;;;;28.66;42.30;99886.84;5096239;28;20094;-79
2022/06/07 08:47:48;;;;;;;3.38;1.60;;;;;;;28.59;42.61;99890.66;5114700;28;20404;-78
2022/06/07 08:50:22;;;;;;;3.88;1.55;;;;;;;28.04;42.99;99881.97;5096078;28;20385;-78
2022/06/07 08:52:53;;;;;;;2.70;1.50;;;;;;;28.03;43.23;99880.28;5114594;28;20084;-78
2022/06/07 08:55:25;;;;;;;4.32;1.25;;;;;;;28.27;42.41;99882.31;5114424;28;20050;-78
2022/06/07 08:57:56;;;;;;;4.00;1.48;;;;;;;28.58;41.87;99878.00;5114630;28;20436;-78
2022/06/07 09:00:27;;;;;;;2.13;1.30;;;;;;;28.81;41.05;99872.81;5114325;28;20469;-78
2022/06/07 09:03:25;;;;;;;2.28;1.17;;;;;;;28.90;39.52;99881.66;5114464;28;20387;-78
2022/06/07 09:06:01;;;;;;;2.38;1.50;;;;;;;28.82;40.24;99876.41;5114321;28;20036;-77
2022/06/07 09:08:35;;;;;;;4.18;1.30;;;;;;;28.84;38.93;99875.09;5114491;28;20434;-78
2022/06/07 09:13:56;;;;;;;3.10;1.58;;;;;;;29.05;38.63;99876.72;5096287;28;20381;-78
2022/06/07 09:16:24;;;;;;;2.80;1.30;;;;;;;29.13;39.20;99870.09;5095857;28;20386;-79
2022/06/07 09:18:54;;;;;;;2.55;1.20;;;;;;;29.03;38.43;99863.19;5113988;28;20047;-79
2022/06/07 09:21:29;;;;;;;3.67;1.40;;;;;;;28.88;39.35;99859.91;5113589;28;20527;-78
2022/06/07 09:23:59;;;;;;;2.95;1.35;;;;;;;28.94;40.00;99860.94;5113899;28;20039;-78
2022/06/07 09:26:31;;;;;;;2.78;1.40;;;;;;;28.88;39.96;99857.16;5113513;28;20043;-78
2022/06/07 09:29:09;;;;;;;2.63;1.50;;;;;;;28.63;40.14;99854.34;5114099;28;20075;-78
2022/06/07 09:31:41;;;;;;;3.08;1.40;;;;;;;28.64;40.17;99855.16;5114090;28;20097;-79
2022/06/07 09:34:19;;;;;;;2.95;1.38;;;;;;;29.03;38.88;99846.72;5113811;28;20047;-79
2022/06/07 09:36:55;;;;;;;3.83;1.88;;;;;;;29.38;37.55;99845.41;5113586;28;20047;-79
2022/06/07 09:39:30;;;;;;;2.58;1.30;;;;;;;29.48;37.92;99846.59;5113177;28;20051;-77
2022/06/07 09:42:02;;;;;;;4.45;1.58;;;;;;;29.70;37.00;99846.19;5113922;28;20040;-78
2022/06/07 09:44:31;;;;;;;;;;;;;;;29.68;36.28;99840.09;5095819;28;20481;-78
2022/06/07 09:47:02;;;;;;;3.90;1.30;;;;;;;29.79;36.86;99842.09;5113727;28;19945;-79
2022/06/07 09:49:36;;;;;;;1.92;1.40;;;;;;;29.86;37.68;99837.38;5113692;28;20056;-77
2022/06/07 09:52:12;;;;;;;7.15;1.75;;;;;;;29.99;37.58;99842.72;5113682;28;20039;-79
2022/06/07 09:54:44;;;;;;;3.42;1.63;;;;;;;29.87;37.70;99841.78;5113731;28;20040;-77
2022/06/07 09:57:32;;;;;;;4.22;1.92;;;;;;;29.84;37.98;99834.00;5113486;28;20499;-79
2022/06/07 10:00:16;;;;;;;2.45;1.30;;;;;;;29.98;37.79;99834.69;5113286;28;20065;-79
2022/06/07 10:03:08;;;;;;;3.00;1.50;;;;;;;30.08;37.26;99832.28;5113754;28;20126;-79
2022/06/07 10:05:40;;;;;;;1.57;1.17;;;;;;;30.17;36.74;99829.00;5113796;28;20036;-79
2022/06/07 10:08:26;;;;;;;4.43;1.80;;;;;;;30.37;35.87;99823.22;5094888;28;20079;-80
2022/06/07 10:11:03;;;;;;;4.10;1.80;;;;;;;30.49;36.12;99821.38;5113951;28;20043;-78
2022/06/07 10:13:52;;;;;;;3.92;1.60;;;;;;;29.97;36.46;99820.09;5112958;28;20042;-78
2022/06/07 10:16:30;;;;;;;2.88;1.42;;;;;;;29.74;36.91;99815.28;5113339;28;20118;-77
2022/06/07 10:19:16;;;;;;;5.85;1.70;;;;;;;29.60;37.62;99817.31;5113311;28;20044;-78
2022/06/07 10:22:09;;;;;;;3.00;1.60;;;;;;;29.86;36.76;99818.13;5095231;28;20052;-78
2022/06/07 10:24:49;;;;;;;2.13;1.30;;;;;;;30.22;35.44;99813.72;5113342;28;20097;-78
2022/06/07 10:27:22;;;;;;;2.28;1.30;;;;;;;30.36;34.69;99818.81;5113302;28;20050;-78
2022/06/07 10:30:11;;;;;;;1.95;1.30;;;;;;;30.38;34.90;99807.56;5095659;28;20055;-78
2022/06/07 10:33:10;;;;;;;2.17;1.10;;;;;;;30.42;33.36;99797.78;5095106;28;20069;-78
2022/06/07 10:35:49;;;;;;;1.30;1.00;;;;;;;30.47;34.79;99793.25;5110697;28;20536;-78
2022/06/07 10:38:35;;;;;;;3.50;1.25;;;;;;;30.68;33.74;99797.44;5113014;28;20040;-78
2022/06/07 10:41:41;;;;;;;2.90;1.33;;;;;;;30.81;33.79;99807.41;5095151;28;20162;-78
2022/06/07 10:44:16;;;;;;;2.00;1.30;;;;;;;30.65;33.63;99803.41;5112686;28;20087;-78
2022/06/07 10:46:45;;;;;;;4.60;1.20;;;;;;;30.61;33.21;99795.84;5095266;28;20237;-78
2022/06/07 10:49:48;;;;;;;3.33;1.30;;;;;;;30.53;34.05;99793.41;5113170;28;20134;-78
2022/06/07 10:52:29;;;;;;;1.92;1.20;;;;;;;30.61;34.35;99791.16;5114885;28;20508;-79
2022/06/07 10:55:05;;;;;;;3.75;1.50;;;;;;;30.37;35.23;99783.88;5116976;28;20071;-78
2022/06/07 10:57:39;;;;;;;1.98;1.30;;;;;;;30.30;35.64;99783.97;5098184;28;20097;-78
2022/06/07 11:00:25;;;;;;;2.78;1.23;;;;;;;29.94;35.61;99782.09;5098595;28;20047;-79
2022/06/07 11:03:03;;;;;;;2.75;1.27;;;;;;;29.75;35.90;99778.50;5116598;28;20035;-76
2022/06/07 11:11:18;;;;;;;2.92;1.25;;;;;;;29.77;35.65;99756.28;5116813;28;20048;-76
2022/06/07 11:14:12;;;;;;;3.13;1.35;;;;;;;29.85;35.08;99758.72;5098239;28;20058;-78
2022/06/07 11:16:57;;;;;;;3.42;1.30;;;;;;;29.91;34.48;99757.78;5098290;28;20051;-78
2022/06/07 11:19:26;;;;;;;1.95;1.20;;;;;;;29.86;35.27;99754.91;5116292;28;20093;-78
2022/06/07 11:21:57;;;;;;;4.45;1.50;;;;;;;29.95;36.44;99748.00;5116345;28;20062;-78
2022/06/07 11:24:30;;;;;;;3.38;1.50;;;;;;;30.15;35.81;99743.13;5116266;28;20044;-78
2022/06/07 11:27:18;;;;;;;2.30;1.30;;;;;;;30.28;34.90;99747.59;5098230;28;20100;-78
2022/06/07 11:29:49;;;;;;;5.15;1.48;;;;;;;30.22;34.42;99743.03;5095470;28;20043;-78
2022/06/07 11:32:42;;;;;;;6.72;1.50;;;;;;;30.43;34.56;99744.44;5116059;28;20470;-79
2022/06/07 11:35:47;;;;;;;4.07;1.70;;;;;;;30.27;35.06;99742.34;5098084;28;20454;-78
2022/06/07 11:38:24;;;;;;;2.83;1.40;;;;;;;29.86;35.33;99741.16;5115791;28;20118;-78
2022/06/07 11:41:36;;;;;;;5.78;1.40;;;;;;;29.91;35.47;99731.13;5115714;28;20126;-78
2022/06/07 11:43:51;;;;;;;3.63;1.65;;;;;;;30.06;33.97;99727.97;5097314;28;20143;-78
2022/06/07 11:46:27;;;;;;;3.38;1.40;;;;;;;30.18;34.29;99720.66;5097089;28;20051;-77
2022/06/07 11:49:33;;;;;;;5.13;1.55;;;;;;;30.35;33.60;99714.50;5115248;28;20048;-78
2022/06/07 11:52:02;;;;;;;;;;;;;;;30.47;33.25;99710.69;5097917;28;20515;-79
2022/06/07 11:54:33;;;;;;;4.20;1.48;;;;;;;30.26;33.70;99710.41;5115182;28;19923;-76
2022/06/07 11:57:16;;;;;;;2.40;1.20;;;;;;;29.78;33.89;99703.81;5115837;28;20092;-79
2022/06/07 11:59:47;;;;;;;2.15;1.13;;;;;;;29.83;34.22;99700.38;5116034;28;20050;-76
2022/06/07 12:02:29;;;;;;;3.55;1.50;;;;;;;30.08;34.24;99703.03;5097114;28;20101;-89
2022/06/07 12:05:19;;;;;;;2.23;1.40;;;;;;;30.05;33.92;99692.47;5115628;28;20043;-79
2022/06/07 12:07:51;;;;;;;2.35;1.63;;;;;;;30.13;33.95;99695.78;5097496;28;20446;-78
2022/06/07 12:10:25;;;;;;;;;;;;;;;30.04;34.59;99699.88;5115775;28;20055;-78
2022/06/07 12:12:55;;;;;;;;;;;;;;;29.96;34.72;99696.63;5116013;28;19970;-78
2022/06/07 12:15:24;;;;;;;;;;;;;;;29.86;34.96;99694.41;5115615;28;19927;-78
2022/06/07 12:17:54;;;;;;;;;;;;;;;30.00;35.07;99693.16;5115768;28;19926;-79
2022/06/07 12:20:27;;;;;;;;;;;;;;;30.20;34.29;99680.00;5115584;28;19920;-78